sensor_id;sensor_type;location;lat;lon;timestamp;P1;durP1;ratioP1;P2;durP2;ratioP2
22543;SDS011;11438;52.044;8.716;2023-05-14T00:00:51;4.30;;;3.10;;
22543;SDS011;11438;52.044;8.716;2023-05-14T00:03:16;3.88;;;3.28;;
22543;SDS011;11438;52.044;8.716;2023-05-14T00:05:42;3.85;;;3.15;;
22543;SDS011;11438;52.044;8.716;2023-05-14T00:08:07;3.75;;;2.95;;
22543;SDS011;11438;52.044;8.716;2023-05-14T00:10:33;4.40;;;2.97;;
22543;SDS011;11438;52.044;8.716;2023-05-14T00:12:59;4.30;;;3.30;;
22543;SDS011;11438;52.044;8.716;2023-05-14T00:15:24;6.65;;;3.47;;
22543;SDS011;11438;52.044;8.716;2023-05-14T00:17:50;4.93;;;3.00;;
22543;SDS011;11438;52.044;8.716;2023-05-14T00:20:15;4.88;;;3.50;;
22543;SDS011;11438;52.044;8.716;2023-05-14T00:22:41;3.33;;;2.83;;
22543;SDS011;11438;52.044;8.716;2023-05-14T00:25:07;3.67;;;3.25;;
22543;SDS011;11438;52.044;8.716;2023-05-14T00:27:34;5.70;;;3.00;;
22543;SDS011;11438;52.044;8.716;2023-05-14T00:30:03;4.40;;;3.30;;
22543;SDS011;11438;52.044;8.716;2023-05-14T00:32:30;3.60;;;3.30;;
22543;SDS011;11438;52.044;8.716;2023-05-14T00:34:55;5.13;;;3.67;;
22543;SDS011;11438;52.044;8.716;2023-05-14T00:37:21;4.03;;;3.50;;
22543;SDS011;11438;52.044;8.716;2023-05-14T00:39:47;4.15;;;3.42;;
22543;SDS011;11438;52.044;8.716;2023-05-14T00:42:12;5.57;;;3.40;;
22543;SDS011;11438;52.044;8.716;2023-05-14T00:44:38;4.20;;;3.17;;
22543;SDS011;11438;52.044;8.716;2023-05-14T00:47:03;4.75;;;3.60;;
22543;SDS011;11438;52.044;8.716;2023-05-14T00:49:29;4.50;;;3.28;;
22543;SDS011;11438;52.044;8.716;2023-05-14T00:51:55;3.50;;;3.17;;
22543;SDS011;11438;52.044;8.716;2023-05-14T00:54:22;4.38;;;3.30;;
22543;SDS011;11438;52.044;8.716;2023-05-14T00:56:48;4.18;;;3.70;;
22543;SDS011;11438;52.044;8.716;2023-05-14T00:59:14;4.22;;;3.83;;
22543;SDS011;11438;52.044;8.716;2023-05-14T01:01:40;4.30;;;3.38;;
22543;SDS011;11438;52.044;8.716;2023-05-14T01:04:06;4.35;;;3.70;;
22543;SDS011;11438;52.044;8.716;2023-05-14T01:14:50;4.32;;;3.47;;
22543;SDS011;11438;52.044;8.716;2023-05-14T01:17:24;5.68;;;3.40;;
22543;SDS011;11438;52.044;8.716;2023-05-14T01:19:53;4.38;;;3.33;;
22543;SDS011;11438;52.044;8.716;2023-05-14T01:22:20;4.15;;;3.47;;
22543;SDS011;11438;52.044;8.716;2023-05-14T01:24:46;5.53;;;4.30;;
22543;SDS011;11438;52.044;8.716;2023-05-14T01:27:16;5.30;;;3.40;;
22543;SDS011;11438;52.044;8.716;2023-05-14T01:29:51;5.80;;;3.00;;
22543;SDS011;11438;52.044;8.716;2023-05-14T01:32:23;5.15;;;4.13;;
22543;SDS011;11438;52.044;8.716;2023-05-14T01:34:50;4.35;;;3.53;;
22543;SDS011;11438;52.044;8.716;2023-05-14T01:37:16;6.47;;;3.95;;
22543;SDS011;11438;52.044;8.716;2023-05-14T01:39:42;7.18;;;3.92;;
22543;SDS011;11438;52.044;8.716;2023-05-14T01:42:09;6.72;;;4.35;;
22543;SDS011;11438;52.044;8.716;2023-05-14T01:44:34;6.25;;;4.60;;
22543;SDS011;11438;52.044;8.716;2023-05-14T01:47:00;5.43;;;4.50;;
22543;SDS011;11438;52.044;8.716;2023-05-14T01:49:26;6.15;;;4.22;;
22543;SDS011;11438;52.044;8.716;2023-05-14T01:51:51;5.80;;;4.40;;
22543;SDS011;11438;52.044;8.716;2023-05-14T01:54:17;6.57;;;4.03;;
22543;SDS011;11438;52.044;8.716;2023-05-14T01:56:42;5.40;;;4.00;;
22543;SDS011;11438;52.044;8.716;2023-05-14T01:59:08;6.00;;;4.45;;
22543;SDS011;11438;52.044;8.716;2023-05-14T02:01:33;5.22;;;4.10;;
22543;SDS011;11438;52.044;8.716;2023-05-14T02:03:59;7.57;;;4.47;;
22543;SDS011;11438;52.044;8.716;2023-05-14T02:06:25;5.28;;;4.00;;
22543;SDS011;11438;52.044;8.716;2023-05-14T02:08:50;4.95;;;4.22;;
22543;SDS011;11438;52.044;8.716;2023-05-14T02:11:16;6.57;;;4.55;;
22543;SDS011;11438;52.044;8.716;2023-05-14T02:13:41;8.75;;;4.25;;
22543;SDS011;11438;52.044;8.716;2023-05-14T02:16:07;6.28;;;4.60;;
22543;SDS011;11438;52.044;8.716;2023-05-14T02:18:33;5.05;;;4.05;;
22543;SDS011;11438;52.044;8.716;2023-05-14T02:20:58;4.93;;;4.30;;
22543;SDS011;11438;52.044;8.716;2023-05-14T02:23:24;4.88;;;4.15;;
22543;SDS011;11438;52.044;8.716;2023-05-14T02:25:49;5.85;;;4.05;;
22543;SDS011;11438;52.044;8.716;2023-05-14T02:28:15;5.28;;;4.25;;
22543;SDS011;11438;52.044;8.716;2023-05-14T02:30:40;6.50;;;3.85;;
22543;SDS011;11438;52.044;8.716;2023-05-14T02:33:06;4.30;;;3.90;;
22543;SDS011;11438;52.044;8.716;2023-05-14T02:35:31;4.65;;;3.97;;
22543;SDS011;11438;52.044;8.716;2023-05-14T02:37:57;8.00;;;4.30;;
22543;SDS011;11438;52.044;8.716;2023-05-14T02:40:23;5.30;;;4.00;;
22543;SDS011;11438;52.044;8.716;2023-05-14T02:42:49;7.05;;;3.90;;
22543;SDS011;11438;52.044;8.716;2023-05-14T02:45:14;4.95;;;4.15;;
22543;SDS011;11438;52.044;8.716;2023-05-14T02:47:40;9.75;;;4.60;;
22543;SDS011;11438;52.044;8.716;2023-05-14T02:50:06;9.43;;;4.00;;
22543;SDS011;11438;52.044;8.716;2023-05-14T02:52:32;4.88;;;3.90;;
22543;SDS011;11438;52.044;8.716;2023-05-14T02:54:57;4.97;;;4.47;;
22543;SDS011;11438;52.044;8.716;2023-05-14T02:57:23;4.25;;;3.85;;
22543;SDS011;11438;52.044;8.716;2023-05-14T02:59:48;7.40;;;4.10;;
22543;SDS011;11438;52.044;8.716;2023-05-14T03:02:14;4.97;;;3.60;;
22543;SDS011;11438;52.044;8.716;2023-05-14T03:04:39;4.95;;;4.20;;
22543;SDS011;11438;52.044;8.716;2023-05-14T03:07:05;5.10;;;4.00;;
22543;SDS011;11438;52.044;8.716;2023-05-14T03:09:30;6.10;;;4.00;;
22543;SDS011;11438;52.044;8.716;2023-05-14T03:11:56;6.32;;;4.32;;
22543;SDS011;11438;52.044;8.716;2023-05-14T03:14:21;6.10;;;4.20;;
22543;SDS011;11438;52.044;8.716;2023-05-14T03:16:47;5.07;;;4.07;;
22543;SDS011;11438;52.044;8.716;2023-05-14T03:19:12;4.97;;;4.07;;
22543;SDS011;11438;52.044;8.716;2023-05-14T03:21:38;8.27;;;4.25;;
22543;SDS011;11438;52.044;8.716;2023-05-14T03:24:03;4.65;;;3.75;;
22543;SDS011;11438;52.044;8.716;2023-05-14T03:26:29;4.90;;;4.05;;
22543;SDS011;11438;52.044;8.716;2023-05-14T03:28:55;6.32;;;4.25;;
22543;SDS011;11438;52.044;8.716;2023-05-14T03:31:20;5.38;;;4.50;;
22543;SDS011;11438;52.044;8.716;2023-05-14T03:33:46;5.50;;;4.30;;
22543;SDS011;11438;52.044;8.716;2023-05-14T03:36:11;4.40;;;4.00;;
22543;SDS011;11438;52.044;8.716;2023-05-14T03:38:37;5.40;;;4.32;;
22543;SDS011;11438;52.044;8.716;2023-05-14T03:41:02;8.45;;;5.00;;
22543;SDS011;11438;52.044;8.716;2023-05-14T03:43:28;4.82;;;4.13;;
22543;SDS011;11438;52.044;8.716;2023-05-14T03:45:54;7.13;;;4.55;;
22543;SDS011;11438;52.044;8.716;2023-05-14T03:48:19;5.07;;;4.07;;
22543;SDS011;11438;52.044;8.716;2023-05-14T03:50:45;6.13;;;4.13;;
22543;SDS011;11438;52.044;8.716;2023-05-14T03:53:11;5.43;;;4.28;;
22543;SDS011;11438;52.044;8.716;2023-05-14T03:55:36;5.85;;;4.22;;
22543;SDS011;11438;52.044;8.716;2023-05-14T03:58:02;5.13;;;4.25;;
22543;SDS011;11438;52.044;8.716;2023-05-14T04:00:29;5.47;;;4.20;;
22543;SDS011;11438;52.044;8.716;2023-05-14T04:02:55;5.95;;;4.45;;
22543;SDS011;11438;52.044;8.716;2023-05-14T04:05:20;5.72;;;4.72;;
22543;SDS011;11438;52.044;8.716;2023-05-14T04:07:46;4.60;;;3.70;;
22543;SDS011;11438;52.044;8.716;2023-05-14T04:10:12;6.60;;;4.38;;
22543;SDS011;11438;52.044;8.716;2023-05-14T04:12:37;5.18;;;4.10;;
22543;SDS011;11438;52.044;8.716;2023-05-14T04:15:03;5.28;;;4.00;;
22543;SDS011;11438;52.044;8.716;2023-05-14T04:17:29;5.90;;;4.15;;
22543;SDS011;11438;52.044;8.716;2023-05-14T04:19:55;6.57;;;4.78;;
22543;SDS011;11438;52.044;8.716;2023-05-14T04:22:20;7.65;;;4.75;;
22543;SDS011;11438;52.044;8.716;2023-05-14T04:24:46;6.00;;;4.68;;
22543;SDS011;11438;52.044;8.716;2023-05-14T04:27:13;5.28;;;4.20;;
22543;SDS011;11438;52.044;8.716;2023-05-14T04:29:45;5.13;;;4.43;;
22543;SDS011;11438;52.044;8.716;2023-05-14T04:32:10;4.50;;;4.10;;
22543;SDS011;11438;52.044;8.716;2023-05-14T04:34:36;6.15;;;4.60;;
22543;SDS011;11438;52.044;8.716;2023-05-14T04:37:01;6.55;;;4.90;;
22543;SDS011;11438;52.044;8.716;2023-05-14T04:39:28;5.70;;;4.45;;
22543;SDS011;11438;52.044;8.716;2023-05-14T04:41:53;6.43;;;4.38;;
22543;SDS011;11438;52.044;8.716;2023-05-14T04:44:19;5.40;;;4.30;;
22543;SDS011;11438;52.044;8.716;2023-05-14T04:46:45;4.88;;;3.88;;
22543;SDS011;11438;52.044;8.716;2023-05-14T04:49:10;4.45;;;3.95;;
22543;SDS011;11438;52.044;8.716;2023-05-14T04:51:36;5.82;;;4.55;;
22543;SDS011;11438;52.044;8.716;2023-05-14T04:54:01;5.88;;;4.57;;
22543;SDS011;11438;52.044;8.716;2023-05-14T04:56:27;5.47;;;4.22;;
22543;SDS011;11438;52.044;8.716;2023-05-14T04:58:52;5.78;;;4.72;;
22543;SDS011;11438;52.044;8.716;2023-05-14T05:01:18;5.65;;;4.45;;
22543;SDS011;11438;52.044;8.716;2023-05-14T05:03:43;6.85;;;4.50;;
22543;SDS011;11438;52.044;8.716;2023-05-14T05:06:09;6.25;;;4.82;;
22543;SDS011;11438;52.044;8.716;2023-05-14T05:08:35;5.45;;;4.43;;
22543;SDS011;11438;52.044;8.716;2023-05-14T05:11:00;5.97;;;4.30;;
22543;SDS011;11438;52.044;8.716;2023-05-14T05:13:26;4.55;;;4.07;;
22543;SDS011;11438;52.044;8.716;2023-05-14T05:15:52;6.15;;;4.43;;
22543;SDS011;11438;52.044;8.716;2023-05-14T05:18:17;4.65;;;3.67;;
22543;SDS011;11438;52.044;8.716;2023-05-14T05:20:43;5.95;;;3.88;;
22543;SDS011;11438;52.044;8.716;2023-05-14T05:23:08;5.35;;;4.38;;
22543;SDS011;11438;52.044;8.716;2023-05-14T05:25:34;5.63;;;4.20;;
22543;SDS011;11438;52.044;8.716;2023-05-14T05:28:00;4.70;;;3.50;;
22543;SDS011;11438;52.044;8.716;2023-05-14T05:30:25;5.47;;;4.35;;
22543;SDS011;11438;52.044;8.716;2023-05-14T05:32:51;5.60;;;3.97;;
22543;SDS011;11438;52.044;8.716;2023-05-14T05:35:16;6.38;;;4.80;;
22543;SDS011;11438;52.044;8.716;2023-05-14T05:37:42;5.18;;;4.47;;
22543;SDS011;11438;52.044;8.716;2023-05-14T05:40:09;5.22;;;4.57;;
22543;SDS011;11438;52.044;8.716;2023-05-14T05:42:35;4.65;;;4.10;;
22543;SDS011;11438;52.044;8.716;2023-05-14T05:45:00;4.90;;;4.30;;
22543;SDS011;11438;52.044;8.716;2023-05-14T05:47:26;4.38;;;3.85;;
22543;SDS011;11438;52.044;8.716;2023-05-14T05:49:51;5.25;;;4.07;;
22543;SDS011;11438;52.044;8.716;2023-05-14T05:52:18;4.00;;;3.60;;
22543;SDS011;11438;52.044;8.716;2023-05-14T05:54:43;4.60;;;3.67;;
22543;SDS011;11438;52.044;8.716;2023-05-14T05:57:09;4.38;;;3.95;;
22543;SDS011;11438;52.044;8.716;2023-05-14T05:59:34;5.03;;;4.10;;
22543;SDS011;11438;52.044;8.716;2023-05-14T06:02:00;4.45;;;3.80;;
22543;SDS011;11438;52.044;8.716;2023-05-14T06:04:25;4.75;;;3.83;;
22543;SDS011;11438;52.044;8.716;2023-05-14T06:06:51;4.45;;;3.65;;
22543;SDS011;11438;52.044;8.716;2023-05-14T06:09:17;4.45;;;3.53;;
22543;SDS011;11438;52.044;8.716;2023-05-14T06:11:42;3.72;;;3.17;;
22543;SDS011;11438;52.044;8.716;2023-05-14T06:14:08;4.70;;;3.47;;
22543;SDS011;11438;52.044;8.716;2023-05-14T06:16:33;7.32;;;3.95;;
22543;SDS011;11438;52.044;8.716;2023-05-14T06:18:59;6.18;;;3.83;;
22543;SDS011;11438;52.044;8.716;2023-05-14T06:21:25;6.75;;;4.38;;
22543;SDS011;11438;52.044;8.716;2023-05-14T06:23:50;4.93;;;3.45;;
22543;SDS011;11438;52.044;8.716;2023-05-14T06:26:16;4.18;;;3.42;;
22543;SDS011;11438;52.044;8.716;2023-05-14T06:28:41;3.70;;;3.40;;
22543;SDS011;11438;52.044;8.716;2023-05-14T06:31:07;4.18;;;3.60;;
22543;SDS011;11438;52.044;8.716;2023-05-14T06:33:32;4.18;;;3.78;;
22543;SDS011;11438;52.044;8.716;2023-05-14T06:36:03;4.18;;;3.67;;
22543;SDS011;11438;52.044;8.716;2023-05-14T06:38:30;5.53;;;3.85;;
22543;SDS011;11438;52.044;8.716;2023-05-14T06:40:55;4.72;;;3.97;;
22543;SDS011;11438;52.044;8.716;2023-05-14T06:43:21;5.22;;;4.07;;
22543;SDS011;11438;52.044;8.716;2023-05-14T06:45:50;4.05;;;3.47;;
22543;SDS011;11438;52.044;8.716;2023-05-14T06:48:16;4.32;;;3.75;;
22543;SDS011;11438;52.044;8.716;2023-05-14T06:50:45;4.25;;;3.38;;
22543;SDS011;11438;52.044;8.716;2023-05-14T06:53:12;5.22;;;3.60;;
22543;SDS011;11438;52.044;8.716;2023-05-14T06:55:38;3.83;;;3.30;;
22543;SDS011;11438;52.044;8.716;2023-05-14T06:58:07;4.78;;;3.20;;
22543;SDS011;11438;52.044;8.716;2023-05-14T07:00:33;4.75;;;3.42;;
22543;SDS011;11438;52.044;8.716;2023-05-14T07:02:58;5.70;;;3.50;;
22543;SDS011;11438;52.044;8.716;2023-05-14T07:05:24;3.58;;;3.28;;
22543;SDS011;11438;52.044;8.716;2023-05-14T07:07:50;6.72;;;3.47;;
22543;SDS011;11438;52.044;8.716;2023-05-14T07:10:15;4.03;;;3.50;;
22543;SDS011;11438;52.044;8.716;2023-05-14T07:12:41;5.13;;;3.13;;
22543;SDS011;11438;52.044;8.716;2023-05-14T07:15:07;3.60;;;2.90;;
22543;SDS011;11438;52.044;8.716;2023-05-14T07:17:33;3.28;;;2.83;;
22543;SDS011;11438;52.044;8.716;2023-05-14T07:19:58;3.25;;;2.95;;
22543;SDS011;11438;52.044;8.716;2023-05-14T07:22:24;3.33;;;2.92;;
22543;SDS011;11438;52.044;8.716;2023-05-14T07:24:50;3.50;;;2.60;;
22543;SDS011;11438;52.044;8.716;2023-05-14T07:27:15;5.28;;;2.80;;
22543;SDS011;11438;52.044;8.716;2023-05-14T07:29:41;3.03;;;2.60;;
22543;SDS011;11438;52.044;8.716;2023-05-14T07:32:07;4.05;;;2.90;;
22543;SDS011;11438;52.044;8.716;2023-05-14T07:34:33;3.13;;;2.70;;
22543;SDS011;11438;52.044;8.716;2023-05-14T07:36:58;3.88;;;2.70;;
22543;SDS011;11438;52.044;8.716;2023-05-14T07:39:24;4.03;;;2.70;;
22543;SDS011;11438;52.044;8.716;2023-05-14T07:41:49;3.50;;;2.30;;
22543;SDS011;11438;52.044;8.716;2023-05-14T07:44:15;2.65;;;2.30;;
22543;SDS011;11438;52.044;8.716;2023-05-14T07:46:41;2.63;;;2.10;;
22543;SDS011;11438;52.044;8.716;2023-05-14T07:49:06;2.80;;;2.20;;
22543;SDS011;11438;52.044;8.716;2023-05-14T07:51:32;3.50;;;1.95;;
22543;SDS011;11438;52.044;8.716;2023-05-14T07:53:58;2.50;;;1.90;;
22543;SDS011;11438;52.044;8.716;2023-05-14T07:56:23;2.28;;;1.95;;
22543;SDS011;11438;52.044;8.716;2023-05-14T07:58:49;3.30;;;2.17;;
22543;SDS011;11438;52.044;8.716;2023-05-14T08:01:15;2.60;;;2.30;;
22543;SDS011;11438;52.044;8.716;2023-05-14T08:03:41;2.20;;;2.00;;
22543;SDS011;11438;52.044;8.716;2023-05-14T08:06:06;3.20;;;2.20;;
22543;SDS011;11438;52.044;8.716;2023-05-14T08:08:32;2.85;;;2.20;;
22543;SDS011;11438;52.044;8.716;2023-05-14T08:10:58;2.03;;;1.77;;
22543;SDS011;11438;52.044;8.716;2023-05-14T08:13:23;1.95;;;1.70;;
22543;SDS011;11438;52.044;8.716;2023-05-14T08:15:49;1.90;;;1.70;;
22543;SDS011;11438;52.044;8.716;2023-05-14T08:18:15;2.20;;;2.00;;
22543;SDS011;11438;52.044;8.716;2023-05-14T08:20:40;2.35;;;1.95;;
22543;SDS011;11438;52.044;8.716;2023-05-14T08:23:06;2.42;;;1.95;;
22543;SDS011;11438;52.044;8.716;2023-05-14T08:25:32;2.40;;;2.03;;
22543;SDS011;11438;52.044;8.716;2023-05-14T08:27:57;5.32;;;2.83;;
22543;SDS011;11438;52.044;8.716;2023-05-14T08:30:23;3.45;;;2.25;;
22543;SDS011;11438;52.044;8.716;2023-05-14T08:32:49;3.05;;;2.13;;
22543;SDS011;11438;52.044;8.716;2023-05-14T08:35:15;2.40;;;2.00;;
22543;SDS011;11438;52.044;8.716;2023-05-14T08:37:41;2.30;;;1.80;;
22543;SDS011;11438;52.044;8.716;2023-05-14T08:40:07;2.63;;;2.08;;
22543;SDS011;11438;52.044;8.716;2023-05-14T08:42:33;2.22;;;2.00;;
22543;SDS011;11438;52.044;8.716;2023-05-14T08:44:59;2.10;;;1.90;;
22543;SDS011;11438;52.044;8.716;2023-05-14T08:47:26;2.22;;;1.90;;
22543;SDS011;11438;52.044;8.716;2023-05-14T08:50:01;2.13;;;1.80;;
22543;SDS011;11438;52.044;8.716;2023-05-14T08:52:28;3.35;;;1.90;;
22543;SDS011;11438;52.044;8.716;2023-05-14T08:54:54;3.10;;;1.90;;
22543;SDS011;11438;52.044;8.716;2023-05-14T08:57:21;2.08;;;1.70;;
22543;SDS011;11438;52.044;8.716;2023-05-14T08:59:49;3.03;;;1.85;;
22543;SDS011;11438;52.044;8.716;2023-05-14T09:02:15;3.92;;;2.40;;
22543;SDS011;11438;52.044;8.716;2023-05-14T09:04:44;2.88;;;2.03;;
22543;SDS011;11438;52.044;8.716;2023-05-14T09:07:11;3.38;;;2.10;;
22543;SDS011;11438;52.044;8.716;2023-05-14T09:09:37;2.55;;;2.03;;
22543;SDS011;11438;52.044;8.716;2023-05-14T09:12:02;2.33;;;2.10;;
22543;SDS011;11438;52.044;8.716;2023-05-14T09:14:28;2.65;;;2.30;;
22543;SDS011;11438;52.044;8.716;2023-05-14T09:16:54;2.50;;;2.00;;
22543;SDS011;11438;52.044;8.716;2023-05-14T09:19:20;2.65;;;1.90;;
22543;SDS011;11438;52.044;8.716;2023-05-14T09:21:47;2.33;;;2.13;;
22543;SDS011;11438;52.044;8.716;2023-05-14T09:24:19;3.15;;;2.10;;
22543;SDS011;11438;52.044;8.716;2023-05-14T09:26:48;3.25;;;1.98;;
22543;SDS011;11438;52.044;8.716;2023-05-14T09:29:15;2.00;;;1.80;;
22543;SDS011;11438;52.044;8.716;2023-05-14T09:31:41;3.83;;;2.00;;
22543;SDS011;11438;52.044;8.716;2023-05-14T09:34:07;2.33;;;1.80;;
22543;SDS011;11438;52.044;8.716;2023-05-14T09:36:35;2.65;;;2.00;;
22543;SDS011;11438;52.044;8.716;2023-05-14T09:39:04;1.88;;;1.70;;
22543;SDS011;11438;52.044;8.716;2023-05-14T09:41:30;2.30;;;1.83;;
22543;SDS011;11438;52.044;8.716;2023-05-14T09:43:56;3.17;;;1.80;;
22543;SDS011;11438;52.044;8.716;2023-05-14T09:46:21;2.20;;;2.00;;
22543;SDS011;11438;52.044;8.716;2023-05-14T09:48:47;2.00;;;1.75;;
22543;SDS011;11438;52.044;8.716;2023-05-14T09:51:13;2.13;;;1.70;;
22543;SDS011;11438;52.044;8.716;2023-05-14T09:53:41;3.28;;;1.83;;
22543;SDS011;11438;52.044;8.716;2023-05-14T09:56:08;2.00;;;1.70;;
22543;SDS011;11438;52.044;8.716;2023-05-14T09:58:33;3.05;;;1.60;;
22543;SDS011;11438;52.044;8.716;2023-05-14T10:00:59;2.35;;;1.63;;
22543;SDS011;11438;52.044;8.716;2023-05-14T10:03:25;1.60;;;1.40;;
22543;SDS011;11438;52.044;8.716;2023-05-14T10:05:53;2.72;;;1.80;;
22543;SDS011;11438;52.044;8.716;2023-05-14T10:08:24;1.55;;;1.40;;
22543;SDS011;11438;52.044;8.716;2023-05-14T10:10:54;1.60;;;1.50;;
22543;SDS011;11438;52.044;8.716;2023-05-14T10:13:27;1.55;;;1.30;;
22543;SDS011;11438;52.044;8.716;2023-05-14T10:16:07;2.20;;;1.58;;
22543;SDS011;11438;52.044;8.716;2023-05-14T10:18:35;1.98;;;1.50;;
22543;SDS011;11438;52.044;8.716;2023-05-14T10:21:07;3.28;;;1.63;;
22543;SDS011;11438;52.044;8.716;2023-05-14T10:23:33;1.30;;;1.10;;
22543;SDS011;11438;52.044;8.716;2023-05-14T10:26:02;1.60;;;1.40;;
22543;SDS011;11438;52.044;8.716;2023-05-14T10:28:28;1.55;;;1.30;;
22543;SDS011;11438;52.044;8.716;2023-05-14T10:30:54;1.98;;;1.58;;
22543;SDS011;11438;52.044;8.716;2023-05-14T10:33:20;3.67;;;1.60;;
22543;SDS011;11438;52.044;8.716;2023-05-14T10:35:56;1.58;;;1.38;;
22543;SDS011;11438;52.044;8.716;2023-05-14T10:38:42;1.60;;;1.50;;
22543;SDS011;11438;52.044;8.716;2023-05-14T10:41:12;1.33;;;1.23;;
22543;SDS011;11438;52.044;8.716;2023-05-14T10:43:40;1.98;;;1.60;;
22543;SDS011;11438;52.044;8.716;2023-05-14T10:46:07;1.58;;;1.25;;
22543;SDS011;11438;52.044;8.716;2023-05-14T10:48:34;2.13;;;1.30;;
22543;SDS011;11438;52.044;8.716;2023-05-14T10:51:01;1.35;;;1.17;;
22543;SDS011;11438;52.044;8.716;2023-05-14T10:53:34;1.45;;;1.17;;
22543;SDS011;11438;52.044;8.716;2023-05-14T10:56:05;1.88;;;1.10;;
22543;SDS011;11438;52.044;8.716;2023-05-14T10:58:35;1.60;;;1.17;;
22543;SDS011;11438;52.044;8.716;2023-05-14T11:01:02;1.13;;;1.00;;
22543;SDS011;11438;52.044;8.716;2023-05-14T11:03:29;1.30;;;1.20;;
22543;SDS011;11438;52.044;8.716;2023-05-14T11:06:01;1.63;;;1.40;;
22543;SDS011;11438;52.044;8.716;2023-05-14T11:08:28;1.75;;;1.17;;
22543;SDS011;11438;52.044;8.716;2023-05-14T11:10:56;1.27;;;1.17;;
22543;SDS011;11438;52.044;8.716;2023-05-14T11:13:21;1.20;;;1.10;;
22543;SDS011;11438;52.044;8.716;2023-05-14T11:15:47;1.23;;;0.85;;
22543;SDS011;11438;52.044;8.716;2023-05-14T11:18:24;1.38;;;1.25;;
22543;SDS011;11438;52.044;8.716;2023-05-14T11:20:57;1.15;;;1.05;;
22543;SDS011;11438;52.044;8.716;2023-05-14T11:23:26;0.80;;;0.80;;
22543;SDS011;11438;52.044;8.716;2023-05-14T11:25:52;1.73;;;1.10;;
22543;SDS011;11438;52.044;8.716;2023-05-14T11:28:20;0.93;;;0.82;;
22543;SDS011;11438;52.044;8.716;2023-05-14T11:30:50;1.50;;;1.10;;
22543;SDS011;11438;52.044;8.716;2023-05-14T11:33:16;1.20;;;1.10;;
22543;SDS011;11438;52.044;8.716;2023-05-14T11:35:44;1.98;;;1.27;;
22543;SDS011;11438;52.044;8.716;2023-05-14T11:38:19;1.27;;;1.17;;
22543;SDS011;11438;52.044;8.716;2023-05-14T11:40:55;1.58;;;1.23;;
22543;SDS011;11438;52.044;8.716;2023-05-14T11:43:22;1.55;;;1.10;;
22543;SDS011;11438;52.044;8.716;2023-05-14T11:45:48;2.08;;;1.38;;
22543;SDS011;11438;52.044;8.716;2023-05-14T11:48:15;1.63;;;1.40;;
22543;SDS011;11438;52.044;8.716;2023-05-14T11:50:48;2.05;;;1.65;;
22543;SDS011;11438;52.044;8.716;2023-05-14T11:53:25;2.47;;;1.50;;
22543;SDS011;11438;52.044;8.716;2023-05-14T11:55:52;1.63;;;1.27;;
22543;SDS011;11438;52.044;8.716;2023-05-14T11:58:19;2.08;;;1.42;;
22543;SDS011;11438;52.044;8.716;2023-05-14T12:00:45;2.40;;;1.40;;
22543;SDS011;11438;52.044;8.716;2023-05-14T12:03:13;1.65;;;1.42;;
22543;SDS011;11438;52.044;8.716;2023-05-14T12:05:39;1.98;;;1.60;;
22543;SDS011;11438;52.044;8.716;2023-05-14T12:11:06;1.67;;;1.58;;
22543;SDS011;11438;52.044;8.716;2023-05-14T12:13:33;2.67;;;1.70;;
22543;SDS011;11438;52.044;8.716;2023-05-14T12:16:00;1.60;;;1.33;;
22543;SDS011;11438;52.044;8.716;2023-05-14T12:18:27;1.42;;;1.20;;
22543;SDS011;11438;52.044;8.716;2023-05-14T12:20:55;1.80;;;1.50;;
22543;SDS011;11438;52.044;8.716;2023-05-14T12:23:26;1.20;;;1.10;;
22543;SDS011;11438;52.044;8.716;2023-05-14T12:25:53;1.55;;;1.33;;
22543;SDS011;11438;52.044;8.716;2023-05-14T12:28:19;1.80;;;1.30;;
22543;SDS011;11438;52.044;8.716;2023-05-14T12:30:47;1.50;;;1.40;;
22543;SDS011;11438;52.044;8.716;2023-05-14T12:33:13;1.42;;;1.20;;
22543;SDS011;11438;52.044;8.716;2023-05-14T12:35:39;1.50;;;1.40;;
22543;SDS011;11438;52.044;8.716;2023-05-14T12:38:05;1.35;;;1.10;;
22543;SDS011;11438;52.044;8.716;2023-05-14T12:40:30;1.65;;;1.42;;
22543;SDS011;11438;52.044;8.716;2023-05-14T12:42:56;1.20;;;1.10;;
22543;SDS011;11438;52.044;8.716;2023-05-14T12:45:21;1.30;;;1.20;;
22543;SDS011;11438;52.044;8.716;2023-05-14T12:47:47;1.30;;;1.20;;
22543;SDS011;11438;52.044;8.716;2023-05-14T12:50:12;1.55;;;1.20;;
22543;SDS011;11438;52.044;8.716;2023-05-14T12:52:38;1.50;;;1.30;;
22543;SDS011;11438;52.044;8.716;2023-05-14T12:55:04;1.23;;;1.13;;
22543;SDS011;11438;52.044;8.716;2023-05-14T12:57:30;1.38;;;1.10;;
22543;SDS011;11438;52.044;8.716;2023-05-14T12:59:55;1.30;;;1.10;;
22543;SDS011;11438;52.044;8.716;2023-05-14T13:02:21;1.40;;;1.30;;
22543;SDS011;11438;52.044;8.716;2023-05-14T13:04:47;1.25;;;1.08;;
22543;SDS011;11438;52.044;8.716;2023-05-14T13:07:12;1.88;;;1.17;;
22543;SDS011;11438;52.044;8.716;2023-05-14T13:09:38;1.20;;;1.10;;
22543;SDS011;11438;52.044;8.716;2023-05-14T13:12:03;2.63;;;0.90;;
22543;SDS011;11438;52.044;8.716;2023-05-14T13:14:29;1.60;;;1.17;;
22543;SDS011;11438;52.044;8.716;2023-05-14T13:16:55;2.40;;;1.20;;
22543;SDS011;11438;52.044;8.716;2023-05-14T13:19:21;1.10;;;1.00;;
22543;SDS011;11438;52.044;8.716;2023-05-14T13:21:46;1.42;;;1.27;;
22543;SDS011;11438;52.044;8.716;2023-05-14T13:24:12;1.58;;;1.10;;
22543;SDS011;11438;52.044;8.716;2023-05-14T13:26:37;1.85;;;1.30;;
22543;SDS011;11438;52.044;8.716;2023-05-14T13:29:03;1.55;;;1.20;;
22543;SDS011;11438;52.044;8.716;2023-05-14T13:31:28;2.22;;;1.10;;
22543;SDS011;11438;52.044;8.716;2023-05-14T13:33:54;1.98;;;1.25;;
22543;SDS011;11438;52.044;8.716;2023-05-14T13:36:21;1.20;;;1.10;;
22543;SDS011;11438;52.044;8.716;2023-05-14T13:38:47;1.60;;;1.40;;
22543;SDS011;11438;52.044;8.716;2023-05-14T13:41:13;1.33;;;1.23;;
22543;SDS011;11438;52.044;8.716;2023-05-14T13:43:38;1.50;;;1.10;;
22543;SDS011;11438;52.044;8.716;2023-05-14T13:46:04;0.75;;;0.75;;
22543;SDS011;11438;52.044;8.716;2023-05-14T13:48:30;1.35;;;0.90;;
22543;SDS011;11438;52.044;8.716;2023-05-14T13:50:57;1.30;;;1.10;;
22543;SDS011;11438;52.044;8.716;2023-05-14T13:53:23;1.45;;;1.08;;
22543;SDS011;11438;52.044;8.716;2023-05-14T13:55:49;1.55;;;1.13;;
22543;SDS011;11438;52.044;8.716;2023-05-14T13:58:20;1.65;;;1.10;;
22543;SDS011;11438;52.044;8.716;2023-05-14T14:00:46;2.05;;;1.50;;
22543;SDS011;11438;52.044;8.716;2023-05-14T14:03:11;1.13;;;1.00;;
22543;SDS011;11438;52.044;8.716;2023-05-14T14:05:37;1.10;;;1.00;;
22543;SDS011;11438;52.044;8.716;2023-05-14T14:08:02;1.30;;;1.00;;
22543;SDS011;11438;52.044;8.716;2023-05-14T14:10:28;1.50;;;1.33;;
22543;SDS011;11438;52.044;8.716;2023-05-14T14:12:53;1.30;;;1.20;;
22543;SDS011;11438;52.044;8.716;2023-05-14T14:15:19;3.15;;;1.30;;
22543;SDS011;11438;52.044;8.716;2023-05-14T14:17:45;1.67;;;1.30;;
22543;SDS011;11438;52.044;8.716;2023-05-14T14:20:11;1.85;;;1.50;;
22543;SDS011;11438;52.044;8.716;2023-05-14T14:22:37;1.58;;;1.38;;
22543;SDS011;11438;52.044;8.716;2023-05-14T14:25:02;1.55;;;1.35;;
22543;SDS011;11438;52.044;8.716;2023-05-14T14:27:28;1.40;;;1.23;;
22543;SDS011;11438;52.044;8.716;2023-05-14T14:29:59;1.80;;;1.13;;
22543;SDS011;11438;52.044;8.716;2023-05-14T14:32:25;2.08;;;1.30;;
22543;SDS011;11438;52.044;8.716;2023-05-14T14:34:50;1.63;;;1.33;;
22543;SDS011;11438;52.044;8.716;2023-05-14T14:37:16;1.45;;;1.25;;
22543;SDS011;11438;52.044;8.716;2023-05-14T14:39:41;1.42;;;0.80;;
22543;SDS011;11438;52.044;8.716;2023-05-14T14:42:07;1.48;;;1.13;;
22543;SDS011;11438;52.044;8.716;2023-05-14T14:44:32;1.63;;;0.90;;
22543;SDS011;11438;52.044;8.716;2023-05-14T14:46:58;1.30;;;1.10;;
22543;SDS011;11438;52.044;8.716;2023-05-14T14:49:23;1.45;;;1.25;;
22543;SDS011;11438;52.044;8.716;2023-05-14T14:51:49;2.33;;;1.60;;
22543;SDS011;11438;52.044;8.716;2023-05-14T14:54:15;2.78;;;1.67;;